Airfield :
LOGIN :

Register | Disclaimer

   EN    FR    IT 

 










Legend :    VFR   Marginal VFR   IFR   Intensive IFR   Very Intensive IFR
Visi :
Ceiling :
>= 8 km
>= 3000ft
5 to 8 km
1000 to 3000 ft
1500m to 5 km
500 to 1000 ft
800 to 1500m
200 to 500 ft
< 800m
< 200 ft
Symbols :   Thunderstorms  Fog  Heavy snow  Heavy precipitations  Wind > 20 kt
SIGMETs :     Misc.  Thunderstorms  Icing  Turbulence  Mountain Waves  Volcanic Ashes






- Airport Elevation : 79 ft
- IATA code : NSY


LICZ - Sigonella (Mil) Catania

CURRENT METAR :
  • 211155Z 09006KT 8000 FEW030 26/20 Q1021 RMK FEW VIS MIN 8000 WIND THR28 08006KT WIND THR10 08007KT A3017 BLU

EXPIRED METARs :
  • 211055Z 20002KT 8000 FEW025 26/17 Q1022 RMK FEW VIS MIN 8000 WIND THR28 13003KT WIND THR10 24002KT A3020 BLU
  • 210955Z 15002KT 8000 FEW025 25/20 Q1023 RMK FEW VIS MIN 8000 WIND THR28 14002KT WIND THR10 16002KT A3022 BLU

TAF TAF LICZ
Valid from the 21 at 12:00 until the 21 at 21:00 UTC


211100Z 2112/2121 09012KT 9999 FEW030
TEMPO 2112/2116 8000



MET'MAP, your aeronautical weather chart ! - Copyright ORBIFLY December 2007 - Disclaimer

ORBIFLY MET'MAP TEAM :

Programming & Development : Alexandra Zaïnal
Concept & Development : Baudouin d'Aumeries
Co-Development & Prog : Marc-Olivier Méhu
Technical & hardware support : Manuel Goepfert

Contact : metmap@orbifly.com




SOURCES & CREDITS :

   NOAA